sensor_id;sensor_type;location;lat;lon;timestamp;pressure;altitude;pressure_sealevel;temperature;humidity
54806;BME280;62866;55.776;37.496;2022-09-29T00:00:11;98670.56;;;9.95;85.60
54806;BME280;62866;55.776;37.496;2022-09-29T00:02:37;98668.31;;;9.92;85.49
54806;BME280;62866;55.776;37.496;2022-09-29T00:05:03;98672.78;;;9.98;85.51
54806;BME280;62866;55.776;37.496;2022-09-29T00:07:29;98680.81;;;9.98;85.72
54806;BME280;62866;55.776;37.496;2022-09-29T00:09:56;98679.97;;;9.98;85.68
54806;BME280;62866;55.776;37.496;2022-09-29T00:12:22;98672.41;;;9.95;85.64
54806;BME280;62866;55.776;37.496;2022-09-29T00:14:48;98672.41;;;9.95;85.69
54806;BME280;62866;55.776;37.496;2022-09-29T00:17:13;98678.78;;;9.94;85.58
54806;BME280;62866;55.776;37.496;2022-09-29T00:19:39;98678.34;;;9.97;85.66
54806;BME280;62866;55.776;37.496;2022-09-29T00:22:04;98682.06;;;9.96;85.91
54806;BME280;62866;55.776;37.496;2022-09-29T00:24:30;98677.94;;;10.00;85.59
54806;BME280;62866;55.776;37.496;2022-09-29T00:26:56;98668.72;;;9.96;85.71
54806;BME280;62866;55.776;37.496;2022-09-29T00:29:21;98683.28;;;10.00;85.81
54806;BME280;62866;55.776;37.496;2022-09-29T00:31:47;98690.25;;;10.01;85.38
54806;BME280;62866;55.776;37.496;2022-09-29T00:34:13;98682.66;;;9.98;85.70
54806;BME280;62866;55.776;37.496;2022-09-29T00:36:38;98684.50;;;9.97;85.27
54806;BME280;62866;55.776;37.496;2022-09-29T00:39:05;98687.63;;;9.94;85.44
54806;BME280;62866;55.776;37.496;2022-09-29T00:41:33;98700.53;;;9.97;85.39
54806;BME280;62866;55.776;37.496;2022-09-29T00:44:04;98698.09;;;9.96;85.73
54806;BME280;62866;55.776;37.496;2022-09-29T00:49:23;98696.66;;;9.93;85.45
54806;BME280;62866;55.776;37.496;2022-09-29T00:52:00;98712.44;;;10.01;85.43
54806;BME280;62866;55.776;37.496;2022-09-29T00:54:28;98711.00;;;9.99;85.58
54806;BME280;62866;55.776;37.496;2022-09-29T00:56:57;98711.41;;;10.02;85.27
54806;BME280;62866;55.776;37.496;2022-09-29T00:59:30;98710.59;;;10.02;85.31
54806;BME280;62866;55.776;37.496;2022-09-29T01:01:57;98717.38;;;9.98;85.34
54806;BME280;62866;55.776;37.496;2022-09-29T01:04:24;98702.19;;;9.92;85.20
54806;BME280;62866;55.776;37.496;2022-09-29T01:06:55;98713.63;;;10.05;85.60
54806;BME280;62866;55.776;37.496;2022-09-29T01:09:27;98728.63;;;10.06;85.41
54806;BME280;62866;55.776;37.496;2022-09-29T01:11:55;98719.81;;;10.06;85.45
54806;BME280;62866;55.776;37.496;2022-09-29T01:14:22;98718.78;;;10.07;85.07
54806;BME280;62866;55.776;37.496;2022-09-29T01:16:48;98715.69;;;10.10;85.36
54806;BME280;62866;55.776;37.496;2022-09-29T01:19:19;98714.47;;;10.06;85.10
54806;BME280;62866;55.776;37.496;2022-09-29T01:27:18;98709.13;;;10.06;85.28
54806;BME280;62866;55.776;37.496;2022-09-29T01:38:22;98724.19;;;9.94;85.55
54806;BME280;62866;55.776;37.496;2022-09-29T01:43:41;98728.25;;;9.96;85.82
54806;BME280;62866;55.776;37.496;2022-09-29T01:46:20;98723.31;;;10.00;85.58
54806;BME280;62866;55.776;37.496;2022-09-29T01:48:51;98721.88;;;9.97;85.80
54806;BME280;62866;55.776;37.496;2022-09-29T01:51:25;98738.31;;;10.01;85.65
54806;BME280;62866;55.776;37.496;2022-09-29T01:53:54;98736.47;;;10.01;85.38
54806;BME280;62866;55.776;37.496;2022-09-29T01:56:31;98736.03;;;10.04;85.33
54806;BME280;62866;55.776;37.496;2022-09-29T01:59:14;98736.66;;;10.06;85.46
54806;BME280;62866;55.776;37.496;2022-09-29T02:01:45;98741.78;;;10.08;85.19
54806;BME280;62866;55.776;37.496;2022-09-29T02:04:27;98738.91;;;10.09;85.39
54806;BME280;62866;55.776;37.496;2022-09-29T02:06:59;98736.44;;;10.08;85.44
54806;BME280;62866;55.776;37.496;2022-09-29T02:09:30;98742.00;;;10.06;85.21
54806;BME280;62866;55.776;37.496;2022-09-29T02:12:00;98749.38;;;10.04;85.51
54806;BME280;62866;55.776;37.496;2022-09-29T02:14:31;98750.44;;;10.03;85.49
54806;BME280;62866;55.776;37.496;2022-09-29T02:17:06;98749.38;;;10.04;85.63
54806;BME280;62866;55.776;37.496;2022-09-29T02:19:35;98749.78;;;10.08;85.60
54806;BME280;62866;55.776;37.496;2022-09-29T02:22:02;98742.44;;;10.03;85.38
54806;BME280;62866;55.776;37.496;2022-09-29T02:24:28;98746.31;;;10.07;85.30
54806;BME280;62866;55.776;37.496;2022-09-29T02:26:54;98745.69;;;10.05;85.46
54806;BME280;62866;55.776;37.496;2022-09-29T02:29:20;98742.00;;;10.06;85.57
54806;BME280;62866;55.776;37.496;2022-09-29T02:31:46;98748.78;;;10.09;85.28
54806;BME280;62866;55.776;37.496;2022-09-29T02:34:16;98748.34;;;10.05;85.28
54806;BME280;62866;55.776;37.496;2022-09-29T02:39:25;98746.91;;;10.09;85.12
54806;BME280;62866;55.776;37.496;2022-09-29T02:45:01;98745.69;;;10.05;85.33
54806;BME280;62866;55.776;37.496;2022-09-29T02:50:47;98751.66;;;10.07;85.09
54806;BME280;62866;55.776;37.496;2022-09-29T02:53:28;98752.88;;;10.05;84.94
54806;BME280;62866;55.776;37.496;2022-09-29T02:56:03;98752.28;;;10.03;85.07
54806;BME280;62866;55.776;37.496;2022-09-29T03:01:07;98744.69;;;10.00;85.34
54806;BME280;62866;55.776;37.496;2022-09-29T03:03:33;98732.81;;;9.96;85.16
54806;BME280;62866;55.776;37.496;2022-09-29T03:05:59;98749.19;;;10.06;85.24
54806;BME280;62866;55.776;37.496;2022-09-29T03:08:25;98756.81;;;10.02;85.01
54806;BME280;62866;55.776;37.496;2022-09-29T03:10:50;98751.25;;;10.04;85.04
54806;BME280;62866;55.776;37.496;2022-09-29T03:13:17;98759.03;;;10.05;85.39
54806;BME280;62866;55.776;37.496;2022-09-29T03:15:42;98749.00;;;10.01;85.29
54806;BME280;62866;55.776;37.496;2022-09-29T03:18:08;98759.88;;;10.06;85.25
54806;BME280;62866;55.776;37.496;2022-09-29T03:20:33;98758.22;;;10.05;85.23
54806;BME280;62866;55.776;37.496;2022-09-29T03:22:59;98769.97;;;10.04;85.12
54806;BME280;62866;55.776;37.496;2022-09-29T03:25:24;98778.19;;;10.02;85.29
54806;BME280;62866;55.776;37.496;2022-09-29T03:27:50;98764.81;;;10.02;85.09
54806;BME280;62866;55.776;37.496;2022-09-29T03:30:17;98755.41;;;9.93;85.38
54806;BME280;62866;55.776;37.496;2022-09-29T03:32:43;98770.56;;;9.99;85.28
54806;BME280;62866;55.776;37.496;2022-09-29T03:35:09;98765.63;;;9.96;85.37
54806;BME280;62866;55.776;37.496;2022-09-29T03:37:35;98765.84;;;10.01;85.39
54806;BME280;62866;55.776;37.496;2022-09-29T03:40:01;98770.97;;;10.03;85.21
54806;BME280;62866;55.776;37.496;2022-09-29T03:42:27;98781.44;;;10.04;85.37
54806;BME280;62866;55.776;37.496;2022-09-29T03:44:53;98785.97;;;10.04;85.26
54806;BME280;62866;55.776;37.496;2022-09-29T03:47:18;98795.00;;;10.09;85.29
54806;BME280;62866;55.776;37.496;2022-09-29T03:49:44;98803.84;;;10.10;85.01
54806;BME280;62866;55.776;37.496;2022-09-29T03:52:10;98798.28;;;10.11;85.36
54806;BME280;62866;55.776;37.496;2022-09-29T03:54:35;98806.06;;;10.13;85.29
54806;BME280;62866;55.776;37.496;2022-09-29T03:57:01;98797.03;;;10.14;85.02
54806;BME280;62866;55.776;37.496;2022-09-29T03:59:26;98794.16;;;10.09;85.06
54806;BME280;62866;55.776;37.496;2022-09-29T04:01:52;98795.19;;;10.14;85.02
54806;BME280;62866;55.776;37.496;2022-09-29T04:04:17;98796.81;;;10.15;84.93
54806;BME280;62866;55.776;37.496;2022-09-29T04:06:43;98792.28;;;10.16;85.10
54806;BME280;62866;55.776;37.496;2022-09-29T04:09:08;98801.34;;;10.15;84.87
54806;BME280;62866;55.776;37.496;2022-09-29T04:11:34;98799.13;;;10.18;84.85
54806;BME280;62866;55.776;37.496;2022-09-29T04:13:59;98794.78;;;10.17;84.72
54806;BME280;62866;55.776;37.496;2022-09-29T04:16:25;98797.66;;;10.22;84.66
54806;BME280;62866;55.776;37.496;2022-09-29T04:18:50;98797.03;;;10.27;84.84
54806;BME280;62866;55.776;37.496;2022-09-29T04:21:16;98796.81;;;10.29;84.49
54806;BME280;62866;55.776;37.496;2022-09-29T04:23:41;98805.84;;;10.34;84.60
54806;BME280;62866;55.776;37.496;2022-09-29T04:26:07;98795.78;;;10.36;84.35
54806;BME280;62866;55.776;37.496;2022-09-29T04:28:34;98807.28;;;10.37;84.43
54806;BME280;62866;55.776;37.496;2022-09-29T04:31:00;98808.47;;;10.41;84.22
54806;BME280;62866;55.776;37.496;2022-09-29T04:33:26;98803.97;;;10.41;84.44
54806;BME280;62866;55.776;37.496;2022-09-29T04:35:54;98802.53;;;10.45;84.15
54806;BME280;62866;55.776;37.496;2022-09-29T04:38:20;98803.31;;;10.52;83.91
54806;BME280;62866;55.776;37.496;2022-09-29T04:40:46;98807.19;;;10.56;83.86
54806;BME280;62866;55.776;37.496;2022-09-29T04:43:12;98804.72;;;10.55;83.92
54806;BME280;62866;55.776;37.496;2022-09-29T04:45:38;98806.56;;;10.61;84.06
54806;BME280;62866;55.776;37.496;2022-09-29T04:48:03;98809.63;;;10.64;83.54
54806;BME280;62866;55.776;37.496;2022-09-29T04:50:29;98811.06;;;10.67;83.80
54806;BME280;62866;55.776;37.496;2022-09-29T04:52:55;98813.91;;;10.72;83.24
54806;BME280;62866;55.776;37.496;2022-09-29T04:55:21;98805.22;;;10.83;83.06
54806;BME280;62866;55.776;37.496;2022-09-29T04:57:46;98802.69;;;10.88;82.29
54806;BME280;62866;55.776;37.496;2022-09-29T05:00:13;98807.63;;;10.91;82.24
54806;BME280;62866;55.776;37.496;2022-09-29T05:02:39;98801.81;;;11.01;82.35
54806;BME280;62866;55.776;37.496;2022-09-29T05:05:05;98807.31;;;11.13;82.14
54806;BME280;62866;55.776;37.496;2022-09-29T05:07:33;98798.78;;;11.22;81.98
54806;BME280;62866;55.776;37.496;2022-09-29T05:09:59;98795.03;;;11.30;81.57
54806;BME280;62866;55.776;37.496;2022-09-29T05:12:24;98799.53;;;11.36;81.36
54806;BME280;62866;55.776;37.496;2022-09-29T05:14:50;98802.19;;;11.36;81.57
54806;BME280;62866;55.776;37.496;2022-09-29T05:17:15;98812.28;;;11.34;81.57
54806;BME280;62866;55.776;37.496;2022-09-29T05:19:41;98819.06;;;11.36;81.69
54806;BME280;62866;55.776;37.496;2022-09-29T05:22:06;98831.69;;;11.29;81.59
54806;BME280;62866;55.776;37.496;2022-09-29T05:24:32;98829.50;;;11.20;82.14
54806;BME280;62866;55.776;37.496;2022-09-29T05:26:57;98835.69;;;11.14;82.42
54806;BME280;62866;55.776;37.496;2022-09-29T05:29:23;98830.59;;;11.06;82.28
54806;BME280;62866;55.776;37.496;2022-09-29T05:31:49;98844.63;;;11.01;82.21
54806;BME280;62866;55.776;37.496;2022-09-29T05:34:15;98842.56;;;10.96;82.46
54806;BME280;62866;55.776;37.496;2022-09-29T05:36:41;98849.19;;;10.94;82.60
54806;BME280;62866;55.776;37.496;2022-09-29T05:39:07;98843.44;;;10.90;82.83
54806;BME280;62866;55.776;37.496;2022-09-29T05:41:32;98848.78;;;10.90;82.86
54806;BME280;62866;55.776;37.496;2022-09-29T05:43:58;98840.59;;;10.85;82.55
54806;BME280;62866;55.776;37.496;2022-09-29T05:46:25;98846.53;;;10.87;82.69
54806;BME280;62866;55.776;37.496;2022-09-29T05:48:51;98858.03;;;10.94;82.42
54806;BME280;62866;55.776;37.496;2022-09-29T05:51:20;98857.81;;;10.96;82.35
54806;BME280;62866;55.776;37.496;2022-09-29T05:53:46;98859.25;;;10.92;82.61
54806;BME280;62866;55.776;37.496;2022-09-29T05:56:20;98839.75;;;10.85;82.07
54806;BME280;62866;55.776;37.496;2022-09-29T05:58:46;98861.28;;;10.96;82.15
54806;BME280;62866;55.776;37.496;2022-09-29T06:01:16;98874.25;;;10.99;82.14
54806;BME280;62866;55.776;37.496;2022-09-29T06:03:42;98863.16;;;10.96;81.99
54806;BME280;62866;55.776;37.496;2022-09-29T06:06:11;98874.25;;;10.99;82.15
54806;BME280;62866;55.776;37.496;2022-09-29T06:08:38;98872.63;;;10.92;82.09
54806;BME280;62866;55.776;37.496;2022-09-29T06:13:37;98869.53;;;10.95;82.22
54806;BME280;62866;55.776;37.496;2022-09-29T06:19:14;98863.28;;;11.08;82.20
54806;BME280;62866;55.776;37.496;2022-09-29T06:21:49;98860.97;;;11.18;81.87
54806;BME280;62866;55.776;37.496;2022-09-29T06:24:35;98867.53;;;11.22;81.76
54806;BME280;62866;55.776;37.496;2022-09-29T06:27:01;98858.06;;;11.26;81.62
54806;BME280;62866;55.776;37.496;2022-09-29T06:29:26;98859.22;;;11.36;81.19
54806;BME280;62866;55.776;37.496;2022-09-29T06:31:52;98868.50;;;11.34;81.35
54806;BME280;62866;55.776;37.496;2022-09-29T06:34:18;98858.19;;;11.37;81.29
54806;BME280;62866;55.776;37.496;2022-09-29T06:36:44;98857.13;;;11.38;81.22
54806;BME280;62866;55.776;37.496;2022-09-29T06:39:31;98853.22;;;11.41;81.15
54806;BME280;62866;55.776;37.496;2022-09-29T06:42:22;98862.34;;;11.58;80.95
54806;BME280;62866;55.776;37.496;2022-09-29T06:44:48;98869.22;;;11.72;80.79
54806;BME280;62866;55.776;37.496;2022-09-29T06:47:14;98879.56;;;11.69;80.50
54806;BME280;62866;55.776;37.496;2022-09-29T06:49:39;98873.00;;;11.65;80.31
54806;BME280;62866;55.776;37.496;2022-09-29T06:52:05;98875.69;;;11.65;80.21
54806;BME280;62866;55.776;37.496;2022-09-29T06:54:33;98876.78;;;11.57;80.39
54806;BME280;62866;55.776;37.496;2022-09-29T06:56:58;98872.50;;;11.50;80.29
54806;BME280;62866;55.776;37.496;2022-09-29T06:59:25;98878.53;;;11.45;80.06
54806;BME280;62866;55.776;37.496;2022-09-29T07:01:50;98872.59;;;11.36;80.26
54806;BME280;62866;55.776;37.496;2022-09-29T07:04:16;98881.06;;;11.33;80.26
54806;BME280;62866;55.776;37.496;2022-09-29T07:06:43;98885.47;;;11.21;80.46
54806;BME280;62866;55.776;37.496;2022-09-29T07:09:10;98893.94;;;11.12;81.10
54806;BME280;62866;55.776;37.496;2022-09-29T07:11:43;98896.84;;;11.10;81.20
54806;BME280;62866;55.776;37.496;2022-09-29T07:14:12;98900.34;;;11.11;81.47
54806;BME280;62866;55.776;37.496;2022-09-29T07:16:37;98895.16;;;11.16;81.56
54806;BME280;62866;55.776;37.496;2022-09-29T07:19:03;98899.44;;;11.23;81.54
54806;BME280;62866;55.776;37.496;2022-09-29T07:21:28;98896.53;;;11.25;81.55
54806;BME280;62866;55.776;37.496;2022-09-29T07:23:54;98900.97;;;11.44;81.47
54806;BME280;62866;55.776;37.496;2022-09-29T07:26:19;98904.81;;;11.55;81.15
54806;BME280;62866;55.776;37.496;2022-09-29T07:28:46;98905.97;;;11.65;80.72
54806;BME280;62866;55.776;37.496;2022-09-29T07:31:14;98902.84;;;11.68;80.68
54806;BME280;62866;55.776;37.496;2022-09-29T07:33:40;98902.75;;;11.88;80.53
54806;BME280;62866;55.776;37.496;2022-09-29T07:36:06;98907.31;;;12.06;80.06
54806;BME280;62866;55.776;37.496;2022-09-29T07:38:32;98910.66;;;12.26;79.60
54806;BME280;62866;55.776;37.496;2022-09-29T07:41:06;98909.59;;;12.27;79.12
54806;BME280;62866;55.776;37.496;2022-09-29T07:43:32;98918.25;;;12.29;79.12
54806;BME280;62866;55.776;37.496;2022-09-29T07:45:57;98923.38;;;12.31;79.08
54806;BME280;62866;55.776;37.496;2022-09-29T07:48:25;98922.41;;;12.25;79.22
54806;BME280;62866;55.776;37.496;2022-09-29T07:50:51;98912.91;;;12.29;79.28
54806;BME280;62866;55.776;37.496;2022-09-29T07:53:17;98913.66;;;12.54;79.02
54806;BME280;62866;55.776;37.496;2022-09-29T07:55:43;98914.63;;;12.60;78.63
54806;BME280;62866;55.776;37.496;2022-09-29T07:58:09;98923.84;;;12.64;78.68
54806;BME280;62866;55.776;37.496;2022-09-29T08:00:34;98927.66;;;12.75;78.70
54806;BME280;62866;55.776;37.496;2022-09-29T08:03:05;98926.03;;;12.92;78.53
54806;BME280;62866;55.776;37.496;2022-09-29T08:05:34;98936.31;;;12.95;78.59
54806;BME280;62866;55.776;37.496;2022-09-29T08:08:01;98934.97;;;12.86;78.72
54806;BME280;62866;55.776;37.496;2022-09-29T08:10:29;98946.31;;;12.70;79.66
54806;BME280;62866;55.776;37.496;2022-09-29T08:12:55;98951.34;;;12.60;79.76
54806;BME280;62866;55.776;37.496;2022-09-29T08:15:22;98952.81;;;12.55;79.99
54806;BME280;62866;55.776;37.496;2022-09-29T08:17:47;98952.69;;;12.50;80.09
54806;BME280;62866;55.776;37.496;2022-09-29T08:20:13;98955.44;;;12.44;80.10
54806;BME280;62866;55.776;37.496;2022-09-29T08:22:39;98955.50;;;12.37;80.42
54806;BME280;62866;55.776;37.496;2022-09-29T08:25:04;98963.53;;;12.37;80.54
54806;BME280;62866;55.776;37.496;2022-09-29T08:27:30;98977.69;;;12.44;80.57
54806;BME280;62866;55.776;37.496;2022-09-29T08:29:55;98968.34;;;12.53;80.42
54806;BME280;62866;55.776;37.496;2022-09-29T08:32:43;98979.53;;;12.69;79.96
54806;BME280;62866;55.776;37.496;2022-09-29T08:35:17;98982.22;;;12.69;79.88
54806;BME280;62866;55.776;37.496;2022-09-29T08:38:02;98975.56;;;12.89;79.58
54806;BME280;62866;55.776;37.496;2022-09-29T08:40:29;98980.34;;;13.06;79.13
54806;BME280;62866;55.776;37.496;2022-09-29T08:43:15;98986.41;;;13.01;79.31
54806;BME280;62866;55.776;37.496;2022-09-29T08:46:01;98985.97;;;13.04;79.37
54806;BME280;62866;55.776;37.496;2022-09-29T08:48:35;98989.97;;;13.32;79.06
54806;BME280;62866;55.776;37.496;2022-09-29T08:51:09;98986.22;;;13.51;78.38
54806;BME280;62866;55.776;37.496;2022-09-29T08:53:41;98986.53;;;13.73;78.24
54806;BME280;62866;55.776;37.496;2022-09-29T08:56:14;98988.63;;;14.00;77.38
54806;BME280;62866;55.776;37.496;2022-09-29T08:58:42;99000.25;;;14.24;77.26
54806;BME280;62866;55.776;37.496;2022-09-29T09:20:17;99004.06;;;14.47;77.14
54806;BME280;62866;55.776;37.496;2022-09-29T09:22:55;99009.56;;;14.87;75.88
54806;BME280;62866;55.776;37.496;2022-09-29T09:25:33;99012.25;;;14.87;76.00
54806;BME280;62866;55.776;37.496;2022-09-29T09:30:59;99009.31;;;14.65;76.62
54806;BME280;62866;55.776;37.496;2022-09-29T09:36:24;99026.94;;;14.37;77.01
54806;BME280;62866;55.776;37.496;2022-09-29T09:41:25;99020.69;;;14.14;77.75
54806;BME280;62866;55.776;37.496;2022-09-29T09:44:32;99026.41;;;14.17;78.05
54806;BME280;62866;55.776;37.496;2022-09-29T09:49:44;99038.22;;;14.16;77.97
54806;BME280;62866;55.776;37.496;2022-09-29T09:52:20;99032.38;;;14.19;77.55
54806;BME280;62866;55.776;37.496;2022-09-29T09:54:52;99026.47;;;13.99;78.13
54806;BME280;62866;55.776;37.496;2022-09-29T10:00:11;99020.31;;;14.10;78.05
54806;BME280;62866;55.776;37.496;2022-09-29T10:02:52;99003.16;;;14.11;77.67
54806;BME280;62866;55.776;37.496;2022-09-29T10:05:21;99020.81;;;14.19;77.44
54806;BME280;62866;55.776;37.496;2022-09-29T10:07:51;99028.38;;;14.10;77.80
54806;BME280;62866;55.776;37.496;2022-09-29T10:10:22;99024.44;;;14.13;77.71
54806;BME280;62866;55.776;37.496;2022-09-29T10:13:18;99025.59;;;14.05;77.79
54806;BME280;62866;55.776;37.496;2022-09-29T10:16:12;99033.50;;;14.00;78.11
54806;BME280;62866;55.776;37.496;2022-09-29T10:18:42;99041.78;;;13.98;78.00
54806;BME280;62866;55.776;37.496;2022-09-29T10:23:51;99052.63;;;13.92;78.24
54806;BME280;62866;55.776;37.496;2022-09-29T10:26:20;99060.56;;;13.87;78.28
54806;BME280;62866;55.776;37.496;2022-09-29T10:28:54;99053.16;;;13.82;78.26
54806;BME280;62866;55.776;37.496;2022-09-29T10:31:29;99073.09;;;13.75;78.42
54806;BME280;62866;55.776;37.496;2022-09-29T10:36:32;99053.78;;;13.66;78.49
54806;BME280;62866;55.776;37.496;2022-09-29T10:38:58;99072.75;;;13.71;78.41
54806;BME280;62866;55.776;37.496;2022-09-29T10:41:24;99072.78;;;13.53;78.70
54806;BME280;62866;55.776;37.496;2022-09-29T10:43:50;99089.72;;;13.53;78.93
54806;BME280;62866;55.776;37.496;2022-09-29T10:51:33;99109.75;;;13.33;79.25
54806;BME280;62866;55.776;37.496;2022-09-29T10:54:06;99109.63;;;13.27;79.44
54806;BME280;62866;55.776;37.496;2022-09-29T10:56:33;99113.56;;;13.25;79.54
54806;BME280;62866;55.776;37.496;2022-09-29T10:58:59;99121.38;;;13.26;79.32
54806;BME280;62866;55.776;37.496;2022-09-29T11:01:27;99112.72;;;13.24;79.34
54806;BME280;62866;55.776;37.496;2022-09-29T11:03:59;99112.81;;;13.18;79.42
54806;BME280;62866;55.776;37.496;2022-09-29T11:06:35;99103.09;;;13.17;79.60
54806;BME280;62866;55.776;37.496;2022-09-29T11:11:38;99113.03;;;13.35;79.23
54806;BME280;62866;55.776;37.496;2022-09-29T11:14:04;99122.06;;;13.40;79.20
54806;BME280;62866;55.776;37.496;2022-09-29T11:16:32;99121.41;;;13.45;79.03
54806;BME280;62866;55.776;37.496;2022-09-29T11:19:05;99132.75;;;13.47;78.85
54806;BME280;62866;55.776;37.496;2022-09-29T11:21:53;99128.03;;;13.42;79.03
54806;BME280;62866;55.776;37.496;2022-09-29T11:32:31;99129.47;;;13.45;79.12
54806;BME280;62866;55.776;37.496;2022-09-29T11:43:50;99136.91;;;14.57;76.31
54806;BME280;62866;55.776;37.496;2022-09-29T11:52:11;99147.13;;;14.67;75.81
54806;BME280;62866;55.776;37.496;2022-09-29T11:55:21;99140.31;;;14.53;75.97
54806;BME280;62866;55.776;37.496;2022-09-29T11:58:04;99147.88;;;14.44;76.61
54806;BME280;62866;55.776;37.496;2022-09-29T12:00:56;99155.50;;;14.47;76.76
54806;BME280;62866;55.776;37.496;2022-09-29T12:03:47;99158.34;;;14.34;76.92
54806;BME280;62866;55.776;37.496;2022-09-29T12:15:09;99181.44;;;14.23;77.47
54806;BME280;62866;55.776;37.496;2022-09-29T12:17:56;99167.44;;;14.33;77.25
54806;BME280;62866;55.776;37.496;2022-09-29T12:20:27;99175.38;;;14.46;76.99
54806;BME280;62866;55.776;37.496;2022-09-29T12:22:56;99181.00;;;14.56;76.60
54806;BME280;62866;55.776;37.496;2022-09-29T12:25:29;99174.84;;;14.67;76.18
54806;BME280;62866;55.776;37.496;2022-09-29T12:28:03;99171.22;;;14.73;76.12
54806;BME280;62866;55.776;37.496;2022-09-29T12:30:32;99170.56;;;14.78;76.66
54806;BME280;62866;55.776;37.496;2022-09-29T12:38:57;99171.38;;;14.78;75.82
54806;BME280;62866;55.776;37.496;2022-09-29T12:41:26;99186.34;;;14.74;76.06
54806;BME280;62866;55.776;37.496;2022-09-29T12:44:12;99185.50;;;14.62;76.56
54806;BME280;62866;55.776;37.496;2022-09-29T12:46:49;99181.38;;;14.60;76.74
54806;BME280;62866;55.776;37.496;2022-09-29T12:52:18;99194.38;;;14.63;76.49
54806;BME280;62866;55.776;37.496;2022-09-29T12:54:51;99187.91;;;14.52;76.77
54806;BME280;62866;55.776;37.496;2022-09-29T12:57:57;99195.28;;;14.57;76.77
54806;BME280;62866;55.776;37.496;2022-09-29T13:00:24;99188.59;;;14.48;76.89
54806;BME280;62866;55.776;37.496;2022-09-29T13:03:24;99208.16;;;14.55;76.83
54806;BME280;62866;55.776;37.496;2022-09-29T13:08:46;99200.91;;;14.55;76.65
54806;BME280;62866;55.776;37.496;2022-09-29T13:25:21;99211.50;;;14.38;76.80
54806;BME280;62866;55.776;37.496;2022-09-29T13:27:50;99215.84;;;14.33;77.16
54806;BME280;62866;55.776;37.496;2022-09-29T13:30:22;99227.06;;;14.30;77.02
54806;BME280;62866;55.776;37.496;2022-09-29T13:32:59;99218.50;;;14.21;77.31
54806;BME280;62866;55.776;37.496;2022-09-29T13:35:26;99224.91;;;14.20;77.33
54806;BME280;62866;55.776;37.496;2022-09-29T13:38:03;99219.75;;;14.19;76.99
54806;BME280;62866;55.776;37.496;2022-09-29T13:40:30;99221.03;;;14.16;76.76
54806;BME280;62866;55.776;37.496;2022-09-29T13:42:57;99225.00;;;14.14;76.50
54806;BME280;62866;55.776;37.496;2022-09-29T13:50:40;99234.56;;;14.10;76.92
54806;BME280;62866;55.776;37.496;2022-09-29T13:58:27;99236.59;;;13.96;77.41
54806;BME280;62866;55.776;37.496;2022-09-29T14:00:55;99242.25;;;13.88;77.56
54806;BME280;62866;55.776;37.496;2022-09-29T14:03:38;99239.31;;;13.89;77.76
54806;BME280;62866;55.776;37.496;2022-09-29T14:06:23;99246.19;;;13.85;77.72
54806;BME280;62866;55.776;37.496;2022-09-29T14:09:06;99248.34;;;13.77;77.89
54806;BME280;62866;55.776;37.496;2022-09-29T14:11:50;99245.94;;;13.68;78.00
54806;BME280;62866;55.776;37.496;2022-09-29T14:17:46;99254.16;;;13.55;78.35
54806;BME280;62866;55.776;37.496;2022-09-29T14:20:16;99262.78;;;13.57;78.44
54806;BME280;62866;55.776;37.496;2022-09-29T14:22:52;99254.28;;;13.60;78.23
54806;BME280;62866;55.776;37.496;2022-09-29T14:27:45;99248.25;;;13.65;78.11
54806;BME280;62866;55.776;37.496;2022-09-29T14:30:16;99254.00;;;13.68;77.98
54806;BME280;62866;55.776;37.496;2022-09-29T14:32:58;99257.09;;;13.72;78.04
54806;BME280;62866;55.776;37.496;2022-09-29T14:35:33;99252.97;;;13.70;77.97
54806;BME280;62866;55.776;37.496;2022-09-29T14:40:31;99256.38;;;13.58;78.00
54806;BME280;62866;55.776;37.496;2022-09-29T14:43:11;99261.59;;;13.53;78.35
54806;BME280;62866;55.776;37.496;2022-09-29T14:49:15;99260.88;;;13.40;78.40
54806;BME280;62866;55.776;37.496;2022-09-29T14:55:09;99270.47;;;13.29;78.52
54806;BME280;62866;55.776;37.496;2022-09-29T15:00:17;99272.41;;;13.15;78.79
54806;BME280;62866;55.776;37.496;2022-09-29T15:02:50;99277.59;;;13.10;78.89
54806;BME280;62866;55.776;37.496;2022-09-29T15:05:26;99277.44;;;13.05;78.96
54806;BME280;62866;55.776;37.496;2022-09-29T15:07:53;99281.41;;;12.96;79.03
54806;BME280;62866;55.776;37.496;2022-09-29T15:10:30;99293.19;;;12.95;79.14
54806;BME280;62866;55.776;37.496;2022-09-29T15:15:42;99303.25;;;12.68;79.67
54806;BME280;62866;55.776;37.496;2022-09-29T15:20:54;99305.38;;;12.53;80.07
54806;BME280;62866;55.776;37.496;2022-09-29T15:25:58;99313.41;;;12.53;80.17
54806;BME280;62866;55.776;37.496;2022-09-29T15:28:35;99317.13;;;12.52;80.19
54806;BME280;62866;55.776;37.496;2022-09-29T15:31:04;99314.03;;;12.48;80.42
54806;BME280;62866;55.776;37.496;2022-09-29T15:33:35;99317.13;;;12.52;80.23
54806;BME280;62866;55.776;37.496;2022-09-29T15:36:07;99323.94;;;12.48;80.36
54806;BME280;62866;55.776;37.496;2022-09-29T15:38:39;99334.28;;;12.44;80.40
54806;BME280;62866;55.776;37.496;2022-09-29T15:44:12;99337.81;;;12.32;81.00
54806;BME280;62866;55.776;37.496;2022-09-29T15:46:50;99340.94;;;12.22;81.17
54806;BME280;62866;55.776;37.496;2022-09-29T15:49:24;99339.50;;;12.20;81.51
54806;BME280;62866;55.776;37.496;2022-09-29T15:54:23;99341.38;;;12.12;81.45
54806;BME280;62866;55.776;37.496;2022-09-29T15:56:49;99338.09;;;12.10;81.60
54806;BME280;62866;55.776;37.496;2022-09-29T15:59:43;99347.56;;;12.13;81.81
54806;BME280;62866;55.776;37.496;2022-09-29T16:04:45;99350.25;;;12.00;82.03
54806;BME280;62866;55.776;37.496;2022-09-29T16:07:19;99359.75;;;11.96;82.04
54806;BME280;62866;55.776;37.496;2022-09-29T16:09:47;99359.13;;;11.94;82.21